Track Матвеева Алёна

Time Latitude Longitude Accuracy (66% radius in meters) Altitude (meters) Speed (km/hour) Bearing (degrees) Battery (%) GPS flag
06:29:02 57.203936 60.118217 0 0 0 0 1 delete
06:28:55 57.203942 60.118190 0 0 0 0 1 delete
06:28:53 57.203955 60.118164 0 0 0 0 1 delete
06:28:47 57.204113 60.117925 0 0 0 0 1 delete
06:28:42 57.204266 60.117696 0 0 0 0 1 delete
06:28:37 57.204434 60.117495 0 0 0 0 1 delete
06:28:32 57.204627 60.117420 0 0 0 0 1 delete
06:28:28 57.204806 60.117475 0 0 0 0 1 delete
06:28:24 57.204990 60.117554 0 0 0 0 1 delete
06:28:19 57.205114 60.117625 0 0 0 0 1 delete
06:28:12 57.205163 60.117412 0 0 0 0 1 delete
06:28:05 57.205303 60.117214 0 0 0 0 1 delete
06:27:59 57.205469 60.117085 0 0 0 0 1 delete
06:27:55 57.205648 60.116967 0 0 0 0 1 delete
06:27:52 57.205872 60.116906 0 0 0 0 1 delete
06:27:50 57.206012 60.116920 0 0 0 0 1 delete
06:27:46 57.206219 60.116993 0 0 0 0 1 delete
06:27:42 57.206396 60.117063 0 0 0 0 1 delete
06:27:34 57.206594 60.117123 0 0 0 0 1 delete
06:27:22 57.206553 60.116878 0 0 0 0 1 delete
06:27:08 57.206488 60.116607 0 0 0 0 1 delete
06:26:55 57.206536 60.116277 0 0 0 0 1 delete
06:26:53 57.206567 60.116230 0 0 0 0 1 delete
06:26:51 57.206620 60.116223 0 0 0 0 1 delete
06:26:43 57.206805 60.116283 0 0 0 0 1 delete
06:26:38 57.206983 60.116399 0 0 0 0 1 delete
06:26:33 57.207159 60.116558 0 0 0 0 1 delete
06:26:26 57.207324 60.116720 0 0 0 0 1 delete
06:26:16 57.207517 60.116727 0 0 0 0 1 delete
06:26:07 57.207545 60.116466 0 0 0 0 1 delete
06:25:56 57.207581 60.116126 0 0 0 0 1 delete
06:25:54 57.207611 60.116084 0 0 0 0 1 delete
06:25:48 57.207777 60.116175 0 0 0 0 1 delete
06:25:41 57.207958 60.116359 0 0 0 0 1 delete
06:25:33 57.208146 60.116485 0 0 0 0 1 delete
06:25:23 57.208321 60.116584 0 0 0 0 1 delete
06:25:13 57.208503 60.116660 0 0 0 0 1 delete
06:25:02 57.208695 60.116712 0 0 0 0 1 delete
06:24:52 57.208762 60.116493 0 0 0 0 1 delete
06:24:41 57.208900 60.116272 0 0 0 0 1 delete
06:24:30 57.209061 60.116121 0 0 0 0 1 delete
06:24:25 57.209125 60.115944 0 0 0 0 1 delete
06:24:23 57.209175 60.115892 0 0 0 0 1 delete
06:24:22 57.209211 60.115893 0 0 0 0 1 delete
06:24:16 57.209376 60.116121 0 0 0 0 1 delete
06:24:10 57.209381 60.116415 0 0 0 0 1 delete
06:24:03 57.209509 60.116478 0 0 0 0 1 delete
06:23:51 57.209698 60.116411 0 0 0 0 1 delete
06:23:42 57.209881 60.116390 0 0 0 0 1 delete
06:23:36 57.210044 60.116526 0 0 0 0 1 delete